CDT,Max TemperatureF,Mean TemperatureF,Min TemperatureF,Max Dew PointF,MeanDew PointF,Min DewpointF,Max Humidity, Mean Humidity, Min Humidity, Max Sea Level PressureIn, Mean Sea Level PressureIn, Min Sea Level PressureIn, Max VisibilityMiles, Mean VisibilityMiles, Min VisibilityMiles, Max Wind SpeedMPH, Mean Wind SpeedMPH, Max Gust SpeedMPH,PrecipitationIn, CloudCover, Events, WindDirDegrees
2013-8-1,88,79,70,72,70,67,93,72,50,30.06,30.01,29.95,10,9,1,16,4,20,0.18,5,Rain-Thunderstorm,5
2013-8-2,88,78,68,70,67,62,90,68,45,30.04,30.02,29.97,10,9,6,10,2,15,0.00,1,,18
2013-8-3,87,78,69,74,70,67,94,76,57,30.08,30.05,30.01,10,9,6,13,3,17,T,1,Thunderstorm,299
2013-8-4,88,80,72,73,72,69,94,75,55,30.11,30.07,30.01,10,9,2,14,4,18,0.61,5,Rain-Thunderstorm,356
2013-8-5,87,79,71,70,67,64,93,72,50,30.08,30.03,29.99,10,10,8,12,2,15,0.00,1,,16
2013-8-6,90,82,74,74,71,68,94,77,59,30.03,29.99,29.96,10,8,2,20,2,23,0.38,4,Rain-Thunderstorm,210
2013-8-7,89,81,73,76,72,69,93,75,56,30.03,29.99,29.95,10,10,7,14,4,18,0.04,3,Rain,134
2013-8-8,87,80,72,75,71,66,87,79,70,30.05,30.01,29.96,10,8,0,26,3,46,1.65,3,Rain-Thunderstorm,116
2013-8-9,90,82,73,73,72,70,93,75,56,30.10,30.05,30.01,10,10,8,14,4,18,0.00,2,Thunderstorm,177
2013-8-10,88,81,74,74,72,71,93,77,61,30.14,30.10,30.06,10,10,10,15,4,18,0.01,1,Thunderstorm,15
2013-8-11,90,82,74,73,72,70,94,75,56,30.17,30.13,30.08,10,10,10,15,4,21,0.03,3,Rain-Thunderstorm,181
2013-8-12,91,83,74,74,72,71,94,75,56,30.16,30.08,30.00,10,9,2,24,5,35,0.64,3,Rain-Thunderstorm,222
2013-8-13,88,81,73,74,72,70,93,76,59,30.05,29.99,29.92,10,9,4,13,6,21,0.06,5,Rain-Thunderstorm,260
2013-8-14,82,75,68,72,70,63,93,76,58,30.03,29.98,29.94,10,9,3,12,4,20,0.16,6,Rain,13
2013-8-15,79,72,64,69,65,62,93,81,69,30.07,30.02,29.99,10,9,7,15,5,22,0.00,5,,60
2013-8-16,73,70,67,65,63,62,87,80,73,30.09,30.06,30.01,10,10,7,12,6,15,0.00,8,,72
2013-8-17,70,69,67,65,64,63,93,86,78,30.12,30.09,30.05,10,9,7,10,5,14,T,8,,86
2013-8-18,75,71,67,70,67,64,93,86,79,30.18,30.13,30.08,10,8,2,17,5,22,0.47,8,Rain,106
2013-8-19,85,78,70,71,69,68,97,79,61,30.13,30.09,30.02,10,10,10,10,4,15,T,6,,112
2013-8-20,86,80,73,73,71,70,93,77,61,30.15,30.10,30.06,10,10,10,15,4,17,T,5,Rain-Thunderstorm,101
2013-8-21,89,81,73,72,70,67,93,73,53,30.22,30.16,30.09,10,10,6,9,2,14,0.00,4,Thunderstorm,164
2013-8-22,88,80,72,72,70,68,93,73,53,30.17,30.11,30.05,10,10,9,12,2,15,T,2,,87
2013-8-23,90,81,71,74,71,64,94,72,50,30.11,30.05,29.99,10,10,9,18,2,26,0.03,1,,65
2013-8-24,88,80,71,72,71,70,93,74,55,30.21,30.13,30.06,10,9,4,13,5,22,0.03,2,,86
2013-8-25,85,78,71,70,66,64,84,68,51,30.31,30.26,30.22,10,10,10,15,6,21,0.00,2,,86
2013-8-26,84,75,65,64,61,56,87,65,42,30.30,30.24,30.17,10,10,9,14,5,21,0.00,1,,70
2013-8-27,87,75,63,68,63,60,93,69,44,30.18,30.13,30.08,10,10,10,9,2,14,0.00,1,,2
2013-8-28,89,78,66,71,67,65,93,70,46,30.11,30.07,30.03,10,9,7,10,3,13,0.00,1,,323
2013-8-29,91,81,70,72,69,67,97,72,47,30.09,30.03,29.98,10,8,5,12,3,16,0.00,1,,319
2013-8-30,94,83,72,74,72,69,93,71,49,30.03,29.98,29.92,10,9,6,13,3,17,0.00,2,,357
2013-8-31,95,85,74,73,70,66,87,64,41,29.97,29.92,29.87,10,10,7,14,3,18,0.00,2,Thunderstorm,180